Terminal Aerodrome Forecast
Issued by NWS

Current Version | Previous Version | Text Only | Print | Product List | Glossary Off
Versions: 1 2 3 4 5 6 7 8 9 10 11 12 13 14 15 16 17 18 19 20 21 22 23

000
FTUS41 KRLX 140933 AAA
TAFCKB
TAF AMD
KCKB 140933Z 1410/1506 31004KT P6SM BKN035
     FM141100 VRB04KT P6SM SCT030
     FM142000 02003KT P6SM SKC
     FM150400 08003KT P6SM FEW200=

USA.gov is the U.S. government's official web portal to all federal, state and local government web resources and services.